createdAt,value
2018-05-02T00:00:16.180Z,59.53
2018-05-02T00:02:42.670Z,59.52
2018-05-02T00:05:09.077Z,59.55
2018-05-02T00:07:35.531Z,59.48
2018-05-02T00:10:01.973Z,59.13
2018-05-02T00:12:28.484Z,59.77
2018-05-02T00:14:54.948Z,59.14
2018-05-02T00:17:21.356Z,58.90
2018-05-02T00:19:47.788Z,59.29
2018-05-02T00:22:14.191Z,59.46
2018-05-02T00:24:40.648Z,59.32
2018-05-02T00:27:07.052Z,60.26
2018-05-02T00:29:33.509Z,61.07
2018-05-02T00:31:59.914Z,61.12
2018-05-02T00:34:26.323Z,61.47
2018-05-02T00:36:53.514Z,61.51
2018-05-02T00:39:19.904Z,61.82
2018-05-02T00:41:47.394Z,61.95
2018-05-02T00:44:13.801Z,61.64
2018-05-02T00:46:40.975Z,61.88
2018-05-02T00:49:16.668Z,62.04
2018-05-02T00:51:43.750Z,62.40
2018-05-02T00:54:11.015Z,62.52
2018-05-02T00:56:37.983Z,62.25
2018-05-02T00:59:04.515Z,61.69
2018-05-02T01:01:30.969Z,61.54
2018-05-02T01:03:57.776Z,61.13
2018-05-02T01:06:24.191Z,60.98
2018-05-02T01:08:51.346Z,60.42
2018-05-02T01:11:25.845Z,60.16
2018-05-02T01:13:53.125Z,60.19
2018-05-02T01:16:19.531Z,60.11
2018-05-02T01:18:45.982Z,59.54
2018-05-02T01:21:13.191Z,59.54
2018-05-02T01:23:39.663Z,59.46
2018-05-02T01:26:06.830Z,59.80
2018-05-02T01:28:33.976Z,60.25
2018-05-02T01:31:00.399Z,59.97
2018-05-02T01:33:27.644Z,60.17
2018-05-02T01:35:55.003Z,60.49
2018-05-02T01:38:22.482Z,60.52
2018-05-02T01:40:49.229Z,60.66
2018-05-02T01:43:15.642Z,60.69
2018-05-02T01:45:43.125Z,59.85
2018-05-02T01:48:09.561Z,59.44
2018-05-02T01:50:36.007Z,59.66
2018-05-02T01:53:02.418Z,59.22
2018-05-02T01:55:28.943Z,59.18
2018-05-02T01:57:55.472Z,59.13
2018-05-02T02:00:22.752Z,58.96
2018-05-02T02:02:49.168Z,59.18
2018-05-02T02:05:15.904Z,57.97
2018-05-02T02:07:42.317Z,58.53
2018-05-02T02:10:09.493Z,58.36
2018-05-02T02:12:35.896Z,58.12
2018-05-02T02:15:03.184Z,57.50
2018-05-02T02:17:29.624Z,58.28
2018-05-02T02:19:56.009Z,56.10
2018-05-02T02:22:22.540Z,55.64
2018-05-02T02:24:48.944Z,55.53
2018-05-02T02:27:15.360Z,55.11
2018-05-02T02:29:41.808Z,55.38
2018-05-02T02:32:08.225Z,55.46
2018-05-02T02:34:34.644Z,56.09
2018-05-02T02:37:01.184Z,56.00
2018-05-02T02:39:27.613Z,56.07
2018-05-02T02:41:54.249Z,56.57
2018-05-02T02:44:20.696Z,57.35
2018-05-02T02:46:47.108Z,57.17
2018-05-02T02:49:13.492Z,57.77
2018-05-02T02:51:39.909Z,57.15
2018-05-02T02:54:06.391Z,57.45
2018-05-02T02:56:33.577Z,58.47
2018-05-02T02:59:00.037Z,58.42
2018-05-02T03:01:26.499Z,58.81
2018-05-02T03:03:54.757Z,59.02
2018-05-02T03:06:21.195Z,58.93
2018-05-02T03:08:47.611Z,58.50
2018-05-02T03:11:14.826Z,58.07
2018-05-02T03:13:41.304Z,57.51
2018-05-02T03:16:07.832Z,57.79
2018-05-02T03:18:34.245Z,57.87
2018-05-02T03:21:00.635Z,57.05
2018-05-02T03:23:27.790Z,57.74
2018-05-02T03:25:54.977Z,57.14
2018-05-02T03:28:21.383Z,57.99
2018-05-02T03:30:48.069Z,57.69
2018-05-02T03:33:14.476Z,57.30
2018-05-02T03:35:40.874Z,56.97
2018-05-02T03:38:07.330Z,56.95
2018-05-02T03:40:33.767Z,56.51
2018-05-02T03:43:00.165Z,56.72
2018-05-02T03:45:27.319Z,56.67
2018-05-02T03:47:54.566Z,56.85
2018-05-02T03:50:21.754Z,56.83
2018-05-02T03:52:48.184Z,57.38
2018-05-02T03:55:14.576Z,57.47
2018-05-02T03:57:41.001Z,57.54
2018-05-02T04:00:26.038Z,57.82
2018-05-02T04:03:10.987Z,58.19
2018-05-02T04:08:43.607Z,58.26
2018-05-02T04:11:10.016Z,58.22
2018-05-02T04:13:36.476Z,58.58
2018-05-02T04:16:02.881Z,58.33
2018-05-02T04:18:29.527Z,58.31
2018-05-02T04:20:56.021Z,58.14
2018-05-02T04:23:23.505Z,57.50
2018-05-02T04:25:49.935Z,57.52
2018-05-02T04:28:16.342Z,57.45
2018-05-02T04:30:43.529Z,57.08
2018-05-02T04:33:10.011Z,57.71
2018-05-02T04:35:36.470Z,56.95
2018-05-02T04:38:02.924Z,57.20
2018-05-02T04:40:29.326Z,57.64
2018-05-02T04:42:56.480Z,57.43
2018-05-02T04:45:23.965Z,57.80
2018-05-02T04:47:50.626Z,56.74
2018-05-02T04:50:17.340Z,56.57
2018-05-02T04:52:43.884Z,56.41
2018-05-02T04:55:10.335Z,57.44
2018-05-02T04:57:36.744Z,56.17
2018-05-02T05:00:03.225Z,55.43
2018-05-02T05:02:29.683Z,56.46
2018-05-02T05:04:56.824Z,55.52
2018-05-02T05:07:23.948Z,55.21
2018-05-02T05:09:50.415Z,54.82
2018-05-02T05:12:16.967Z,54.77
2018-05-02T05:14:43.642Z,54.91
2018-05-02T05:17:10.050Z,54.97
2018-05-02T05:19:36.433Z,54.80
2018-05-02T05:22:03.212Z,54.78
2018-05-02T05:24:30.435Z,54.26
2018-05-02T05:26:57.344Z,54.84
2018-05-02T05:29:24.868Z,54.91
2018-05-02T05:31:51.305Z,54.56
2018-05-02T05:34:17.859Z,55.48
2018-05-02T05:36:44.782Z,55.92
2018-05-02T05:39:11.276Z,56.26
2018-05-02T05:41:38.069Z,56.39
2018-05-02T05:44:04.486Z,57.10
2018-05-02T05:46:30.905Z,57.14
2018-05-02T05:48:58.274Z,57.62
2018-05-02T05:51:24.841Z,56.94
2018-05-02T05:53:51.231Z,58.09
2018-05-02T05:56:17.809Z,57.93
2018-05-02T05:58:44.223Z,57.85
2018-05-02T06:01:10.955Z,57.92
2018-05-02T06:03:37.418Z,58.28
2018-05-02T06:06:03.848Z,57.59
2018-05-02T06:08:30.259Z,57.45
2018-05-02T06:10:57.085Z,56.92
2018-05-02T06:13:24.252Z,56.17
2018-05-02T06:15:50.650Z,55.65
2018-05-02T06:18:17.148Z,55.24
2018-05-02T06:20:43.571Z,55.40
2018-05-02T06:23:09.965Z,55.03
2018-05-02T06:25:37.146Z,54.67
2018-05-02T06:28:03.632Z,53.63
2018-05-02T06:30:30.107Z,53.56
2018-05-02T06:32:56.528Z,53.30
2018-05-02T06:35:23.089Z,54.28
2018-05-02T06:37:49.513Z,55.01
2018-05-02T06:40:16.003Z,54.73
2018-05-02T06:42:42.400Z,55.04
2018-05-02T06:45:08.837Z,54.65
2018-05-02T06:47:35.378Z,54.55
2018-05-02T06:50:01.832Z,54.58
2018-05-02T06:52:29.338Z,53.81
2018-05-02T06:54:55.759Z,53.97
2018-05-02T06:57:22.141Z,53.24
2018-05-02T06:59:48.540Z,52.65
2018-05-02T07:02:15.018Z,52.31
2018-05-02T07:04:41.550Z,52.51
2018-05-02T07:07:09.136Z,51.81
2018-05-02T07:09:35.474Z,51.81
2018-05-02T07:12:02.702Z,51.46
2018-05-02T07:14:29.104Z,51.39
2018-05-02T07:16:55.572Z,49.70
2018-05-02T07:19:24.075Z,49.49
2018-05-02T07:21:50.488Z,48.24
2018-05-02T07:24:17.754Z,49.29
2018-05-02T07:26:44.910Z,50.20
2018-05-02T07:29:12.248Z,49.97
2018-05-02T07:31:39.400Z,49.33
2018-05-02T07:34:06.611Z,48.76
2018-05-02T07:36:33.032Z,48.66
2018-05-02T07:38:59.423Z,49.18
2018-05-02T07:41:26.610Z,49.51
2018-05-02T07:43:53.004Z,49.08
2018-05-02T07:46:20.250Z,49.13
2018-05-02T07:48:47.513Z,49.22
2018-05-02T07:51:13.912Z,49.10
2018-05-02T07:53:40.624Z,49.92
2018-05-02T07:56:07.077Z,49.34
2018-05-02T07:58:33.772Z,48.74
2018-05-02T08:01:00.202Z,49.76
2018-05-02T08:03:26.615Z,49.87
2018-05-02T08:05:53.787Z,49.60
2018-05-02T08:08:20.228Z,49.58
2018-05-02T08:10:46.764Z,48.67
2018-05-02T08:13:13.249Z,48.64
2018-05-02T08:15:40.083Z,47.50
2018-05-02T08:18:06.873Z,47.43
2018-05-02T08:20:33.244Z,47.40
2018-05-02T08:22:59.664Z,46.28
2018-05-02T08:25:26.067Z,46.37
2018-05-02T08:27:59.583Z,46.00
2018-05-02T08:30:26.028Z,44.14
2018-05-02T08:32:52.532Z,42.62
2018-05-02T08:35:18.849Z,42.42
2018-05-02T08:37:45.988Z,41.64
2018-05-02T08:40:13.174Z,42.05
2018-05-02T08:42:39.799Z,41.05
2018-05-02T08:45:06.210Z,40.85
2018-05-02T08:47:33.698Z,40.62
2018-05-02T08:50:00.143Z,41.26
2018-05-02T08:52:26.532Z,41.64
2018-05-02T08:54:53.713Z,40.16
2018-05-02T08:57:20.138Z,39.85
2018-05-02T08:59:46.544Z,39.54
2018-05-02T09:02:13.737Z,39.04
2018-05-02T09:04:40.897Z,38.94
2018-05-02T09:07:07.392Z,38.86
2018-05-02T09:09:34.525Z,38.37
2018-05-02T09:12:00.909Z,36.72
2018-05-02T09:14:27.316Z,35.68
2018-05-02T09:16:53.731Z,35.34
2018-05-02T09:19:20.889Z,35.56
2018-05-02T09:21:48.049Z,34.87
2018-05-02T09:24:14.803Z,35.16
2018-05-02T09:26:41.242Z,35.38
2018-05-02T09:29:07.873Z,34.91
2018-05-02T09:31:34.287Z,34.99
2018-05-02T09:34:00.707Z,35.41
2018-05-02T09:36:27.877Z,35.10
2018-05-02T09:38:54.267Z,34.88
2018-05-02T09:41:20.952Z,34.68
2018-05-02T09:43:47.485Z,34.40
2018-05-02T09:46:13.892Z,34.20
2018-05-02T09:48:41.066Z,33.59
2018-05-02T09:51:07.492Z,33.36
2018-05-02T09:53:34.651Z,32.76
2018-05-02T09:56:01.079Z,33.23
2018-05-02T09:58:27.471Z,32.88
2018-05-02T10:00:53.893Z,32.65
2018-05-02T10:03:20.391Z,32.69
2018-05-02T10:05:46.884Z,32.58
2018-05-02T10:08:14.076Z,33.62
2018-05-02T10:10:40.711Z,33.70
2018-05-02T10:13:07.112Z,33.66
2018-05-02T10:15:34.278Z,34.11
2018-05-02T10:18:01.523Z,33.89
2018-05-02T10:20:28.658Z,33.14
2018-05-02T10:22:55.845Z,34.96
2018-05-02T10:25:22.352Z,36.06
2018-05-02T10:27:49.516Z,35.96
2018-05-02T10:30:15.971Z,37.04
2018-05-02T10:32:42.361Z,37.02
2018-05-02T10:35:09.547Z,36.84
2018-05-02T10:37:35.954Z,37.30
2018-05-02T10:40:03.163Z,37.43
2018-05-02T10:42:29.560Z,37.72
2018-05-02T10:44:56.299Z,38.75
2018-05-02T10:47:22.713Z,40.07
2018-05-02T10:49:49.870Z,39.97
2018-05-02T10:52:16.331Z,39.55
2018-05-02T10:54:42.732Z,39.21
2018-05-02T10:57:09.881Z,38.45
2018-05-02T10:59:37.044Z,38.37
2018-05-02T11:02:03.456Z,38.23
2018-05-02T11:04:30.940Z,37.04
2018-05-02T11:06:57.396Z,36.08
2018-05-02T11:09:23.891Z,36.98
2018-05-02T11:11:50.311Z,36.73
2018-05-02T11:14:16.801Z,35.00
2018-05-02T11:16:43.286Z,35.88
2018-05-02T11:19:10.413Z,35.14
2018-05-02T11:21:37.100Z,33.98
2018-05-02T11:24:03.519Z,33.52
2018-05-02T11:26:30.682Z,33.18
2018-05-02T11:28:57.113Z,33.36
2018-05-02T11:31:23.591Z,33.94
2018-05-02T11:33:50.077Z,33.34
2018-05-02T11:36:16.826Z,31.12
2018-05-02T11:38:43.260Z,31.20
2018-05-02T11:41:09.656Z,30.82
2018-05-02T11:43:36.812Z,30.58
2018-05-02T11:46:04.068Z,30.07
2018-05-02T11:48:31.272Z,28.57
2018-05-02T11:50:57.799Z,29.61
2018-05-02T11:53:24.512Z,30.57
2018-05-02T11:55:50.987Z,28.88
2018-05-02T11:58:17.407Z,29.65
2018-05-02T12:00:43.827Z,29.22
2018-05-02T12:03:10.556Z,29.39
2018-05-02T12:05:37.095Z,28.99
2018-05-02T12:08:03.504Z,28.96
2018-05-02T12:10:30.966Z,27.70
2018-05-02T12:12:58.394Z,28.33
2018-05-02T12:15:24.809Z,29.16
2018-05-02T12:17:51.343Z,28.64
2018-05-02T12:20:17.749Z,28.75
2018-05-02T12:22:44.160Z,28.87
2018-05-02T12:25:10.581Z,29.54
2018-05-02T12:27:37.717Z,28.59
2018-05-02T12:30:06.570Z,28.70
2018-05-02T12:32:33.101Z,28.87
2018-05-02T12:34:59.560Z,27.03
2018-05-02T12:37:26.066Z,26.45
2018-05-02T12:39:52.496Z,27.62
2018-05-02T12:42:18.924Z,26.59
2018-05-02T12:44:45.319Z,26.26
2018-05-02T12:47:12.545Z,28.50
2018-05-02T12:49:38.994Z,28.83
2018-05-02T12:52:05.456Z,28.88
2018-05-02T12:54:31.859Z,28.76
2018-05-02T12:56:58.315Z,29.08
2018-05-02T12:59:25.806Z,29.86
2018-05-02T13:01:52.263Z,29.47
2018-05-02T13:04:18.963Z,29.31
2018-05-02T13:06:45.361Z,28.48
2018-05-02T13:09:12.550Z,28.88
2018-05-02T13:11:38.962Z,31.02
2018-05-02T13:14:06.123Z,30.14
2018-05-02T13:16:32.864Z,30.00
2018-05-02T13:18:59.279Z,30.90
2018-05-02T13:21:26.686Z,31.30
2018-05-02T13:23:53.092Z,31.39
2018-05-02T13:26:19.500Z,31.79
2018-05-02T13:28:46.973Z,31.82
2018-05-02T13:31:13.715Z,31.96
2018-05-02T13:33:40.436Z,32.05
2018-05-02T13:36:07.567Z,32.01
2018-05-02T13:38:34.729Z,32.47
2018-05-02T13:41:01.872Z,33.08
2018-05-02T13:43:29.183Z,34.18
2018-05-02T13:45:55.591Z,33.66
2018-05-02T13:48:21.977Z,33.97
2018-05-02T13:50:49.896Z,34.40
2018-05-02T13:53:16.321Z,34.98
2018-05-02T13:55:42.788Z,34.42
2018-05-02T13:58:09.500Z,33.97
2018-05-02T14:00:35.895Z,33.18
2018-05-02T14:03:02.347Z,32.70
2018-05-02T14:05:29.487Z,32.22
2018-05-02T14:07:56.660Z,32.04
2018-05-02T14:10:23.058Z,31.07
2018-05-02T14:12:50.226Z,29.55
2018-05-02T14:15:17.341Z,28.09
2018-05-02T14:17:44.488Z,26.90
2018-05-02T14:20:10.900Z,26.47
2018-05-02T14:22:37.342Z,27.38
2018-05-02T14:25:03.865Z,27.97
2018-05-02T14:27:30.579Z,29.53
2018-05-02T14:29:57.024Z,30.59
2018-05-02T14:32:23.427Z,29.95
2018-05-02T14:34:50.595Z,30.04
2018-05-02T14:37:17.336Z,30.09
2018-05-02T14:39:43.780Z,28.17
2018-05-02T14:42:10.278Z,27.72
2018-05-02T14:44:37.449Z,27.21
2018-05-02T14:47:03.889Z,27.50
2018-05-02T14:49:30.515Z,27.20
2018-05-02T14:51:56.949Z,26.61
2018-05-02T14:54:23.393Z,24.90
2018-05-02T14:56:50.037Z,23.98
2018-05-02T14:59:16.485Z,26.36
2018-05-02T15:01:42.941Z,26.48
2018-05-02T15:04:09.437Z,27.49
2018-05-02T15:06:35.947Z,28.10
2018-05-02T15:09:03.215Z,27.63
2018-05-02T15:11:29.659Z,26.53
2018-05-02T15:13:56.199Z,27.47
2018-05-02T15:16:22.638Z,27.99
2018-05-02T15:18:49.040Z,29.23
2018-05-02T15:21:15.795Z,30.13
2018-05-02T15:23:42.362Z,31.55
2018-05-02T15:26:09.309Z,32.65
2018-05-02T15:28:35.757Z,32.36
2018-05-02T15:31:03.760Z,32.59
2018-05-02T15:33:31.963Z,32.87
2018-05-02T15:35:58.488Z,33.35
2018-05-02T15:38:25.796Z,32.93
2018-05-02T15:40:52.288Z,32.68
2018-05-02T15:43:18.805Z,33.38
2018-05-02T15:45:46.508Z,33.37
2018-05-02T15:48:13.602Z,34.33
2018-05-02T15:50:40.781Z,34.69
2018-05-02T15:53:07.429Z,34.88
2018-05-02T15:55:33.976Z,34.70
2018-05-02T15:58:00.431Z,35.20
2018-05-02T16:00:27.662Z,35.83
2018-05-02T16:02:54.112Z,36.20
2018-05-02T16:05:20.515Z,36.99
2018-05-02T16:07:46.955Z,36.68
2018-05-02T16:10:13.368Z,37.54
2018-05-02T16:12:39.830Z,37.30
2018-05-02T16:15:06.554Z,37.94
2018-05-02T16:17:32.997Z,37.87
2018-05-02T16:19:59.528Z,38.09
2018-05-02T16:22:25.921Z,38.25
2018-05-02T16:24:53.094Z,38.30
2018-05-02T16:27:19.510Z,38.07
2018-05-02T16:29:46.692Z,37.91
2018-05-02T16:32:13.129Z,37.52
2018-05-02T16:34:39.549Z,37.51
2018-05-02T16:37:06.107Z,37.45
2018-05-02T16:39:32.856Z,37.35
2018-05-02T16:41:59.699Z,37.06
2018-05-02T16:44:26.090Z,37.29
2018-05-02T16:46:52.499Z,37.07
2018-05-02T16:49:19.714Z,36.95
2018-05-02T16:51:46.200Z,37.57
2018-05-02T16:54:12.648Z,38.04
2018-05-02T16:56:39.361Z,38.73
2018-05-02T16:59:05.809Z,38.71
2018-05-02T17:01:32.270Z,37.88
2018-05-02T17:03:58.677Z,37.85
2018-05-02T17:06:25.178Z,38.96
2018-05-02T17:08:52.330Z,38.14
2018-05-02T17:11:18.822Z,38.55
2018-05-02T17:13:45.934Z,39.31
2018-05-02T17:16:12.346Z,39.41
2018-05-02T17:18:39.583Z,39.58
2018-05-02T17:21:06.748Z,39.74
2018-05-02T17:23:33.184Z,40.38
2018-05-02T17:26:00.493Z,40.29
2018-05-02T17:28:27.028Z,40.64
2018-05-02T17:30:53.445Z,40.95
2018-05-02T17:33:20.569Z,41.41
2018-05-02T17:35:48.076Z,41.34
2018-05-02T17:38:14.562Z,41.83
2018-05-02T17:40:41.097Z,41.56
2018-05-02T17:43:07.526Z,41.84
2018-05-02T17:45:34.761Z,42.15
2018-05-02T17:48:01.569Z,42.64
2018-05-02T17:50:27.995Z,42.51
2018-05-02T17:52:54.565Z,42.79
2018-05-02T17:55:21.728Z,43.08
2018-05-02T17:57:48.949Z,42.92
2018-05-02T18:00:15.365Z,43.57
2018-05-02T18:02:41.791Z,43.58
2018-05-02T18:05:08.696Z,43.88
2018-05-02T18:07:35.925Z,43.93
2018-05-02T18:10:02.353Z,44.01
2018-05-02T18:12:28.745Z,44.01
2018-05-02T18:14:55.154Z,44.16
2018-05-02T18:17:21.571Z,44.34
2018-05-02T18:19:48.346Z,44.74
2018-05-02T18:22:14.773Z,45.12
2018-05-02T18:24:41.350Z,44.99
2018-05-02T18:27:07.937Z,45.32
2018-05-02T18:29:34.479Z,45.63
2018-05-02T18:32:00.951Z,45.81
2018-05-02T18:34:27.369Z,46.36
2018-05-02T18:36:53.895Z,46.48
2018-05-02T18:39:20.720Z,47.15
2018-05-02T18:41:47.282Z,46.96
2018-05-02T18:44:13.726Z,47.59
2018-05-02T18:46:40.219Z,47.96
2018-05-02T18:49:06.793Z,48.03
2018-05-02T18:51:33.189Z,48.14
2018-05-02T18:53:59.622Z,48.60
2018-05-02T18:56:26.468Z,48.37
2018-05-02T18:58:53.423Z,48.74
2018-05-02T19:01:20.924Z,48.91
2018-05-02T19:03:49.053Z,48.85
2018-05-02T19:06:15.506Z,48.85
2018-05-02T19:08:42.011Z,49.20
2018-05-02T19:11:08.472Z,49.26
2018-05-02T19:13:40.970Z,49.26
2018-05-02T19:16:07.485Z,49.42
2018-05-02T19:18:40.138Z,49.76
2018-05-02T19:21:06.574Z,50.23
2018-05-02T19:23:33.207Z,50.82
2018-05-02T19:26:05.798Z,51.01
2018-05-02T19:28:32.206Z,51.29
2018-05-02T19:34:03.634Z,51.91
2018-05-02T19:36:30.623Z,52.53
2018-05-02T19:38:57.897Z,52.40
2018-05-02T19:41:30.414Z,52.75
2018-05-02T19:44:03.165Z,52.39
2018-05-02T19:46:29.886Z,52.19
2018-05-02T19:48:56.448Z,52.19
2018-05-02T19:51:29.075Z,52.18
2018-05-02T19:53:56.338Z,52.36
2018-05-02T19:56:23.470Z,52.28
2018-05-02T19:58:50.660Z,52.37
2018-05-02T20:01:23.212Z,52.50
2018-05-02T20:03:49.905Z,52.58
2018-05-02T20:06:16.351Z,52.29
2018-05-02T20:08:48.861Z,52.52
2018-05-02T20:11:22.011Z,52.26
2018-05-02T20:13:54.612Z,52.51
2018-05-02T20:16:21.924Z,52.35
2018-05-02T20:18:48.607Z,51.75
2018-05-02T20:21:15.873Z,51.77
2018-05-02T20:23:43.118Z,51.83
2018-05-02T20:26:10.597Z,51.65
2018-05-02T20:28:37.167Z,51.80
2018-05-02T20:31:03.788Z,51.87
2018-05-02T20:33:30.319Z,51.69
2018-05-02T20:35:56.766Z,52.30
2018-05-02T20:38:23.356Z,52.35
2018-05-02T20:40:50.541Z,52.54
2018-05-02T20:43:16.987Z,52.52
2018-05-02T20:45:43.599Z,52.64
2018-05-02T20:48:10.020Z,52.70
2018-05-02T20:50:36.448Z,52.61
2018-05-02T20:53:03.615Z,52.61
2018-05-02T20:55:30.046Z,52.48
2018-05-02T20:57:56.474Z,52.55
2018-05-02T21:00:22.865Z,52.81
2018-05-02T21:02:49.347Z,52.71
2018-05-02T21:05:15.753Z,52.58
2018-05-02T21:07:42.905Z,52.60
2018-05-02T21:10:10.322Z,52.60
2018-05-02T21:12:36.744Z,52.53
2018-05-02T21:15:03.162Z,52.81
2018-05-02T21:17:29.596Z,52.29
2018-05-02T21:19:56.321Z,52.70
2018-05-02T21:22:22.736Z,52.92
2018-05-02T21:24:50.015Z,52.12
2018-05-02T21:27:16.442Z,51.74
2018-05-02T21:29:42.851Z,51.35
2018-05-02T21:32:10.262Z,51.19
2018-05-02T21:34:36.683Z,51.65
2018-05-02T21:37:03.119Z,52.06
2018-05-02T21:39:29.609Z,51.65
2018-05-02T21:41:57.090Z,51.54
2018-05-02T21:44:23.508Z,51.86
2018-05-02T21:46:50.652Z,51.84
2018-05-02T21:49:17.865Z,51.93
2018-05-02T21:51:45.025Z,51.37
2018-05-02T21:54:11.608Z,51.44
2018-05-02T21:56:38.956Z,51.34
2018-05-02T21:59:05.363Z,51.76
2018-05-02T22:01:32.537Z,51.43
2018-05-02T22:03:58.987Z,51.29
2018-05-02T22:06:25.722Z,51.25
2018-05-02T22:08:52.143Z,51.58
2018-05-02T22:11:18.749Z,51.65
2018-05-02T22:13:46.057Z,51.57
2018-05-02T22:16:12.483Z,51.87
2018-05-02T22:18:38.931Z,51.34
2018-05-02T22:21:05.649Z,51.80
2018-05-02T22:23:32.732Z,51.78
2018-05-02T22:25:59.173Z,51.88
2018-05-02T22:28:26.655Z,51.50
2018-05-02T22:30:55.211Z,51.61
2018-05-02T22:33:22.763Z,51.74
2018-05-02T22:35:49.292Z,51.90
2018-05-02T22:38:15.780Z,52.00
2018-05-02T22:40:43.901Z,51.68
2018-05-02T22:43:10.335Z,51.91
2018-05-02T22:45:36.932Z,52.15
2018-05-02T22:48:03.414Z,52.22
2018-05-02T22:50:29.836Z,52.31
2018-05-02T22:52:56.285Z,52.00
2018-05-02T22:55:22.704Z,52.40
2018-05-02T22:57:49.121Z,52.67
2018-05-02T23:00:15.687Z,52.87
2018-05-02T23:02:42.217Z,52.80
2018-05-02T23:05:08.918Z,52.95
2018-05-02T23:07:35.315Z,53.24
2018-05-02T23:10:02.522Z,53.34
2018-05-02T23:12:28.903Z,53.50
2018-05-02T23:14:56.054Z,54.13
2018-05-02T23:17:23.207Z,54.19
2018-05-02T23:19:50.451Z,54.34
2018-05-02T23:22:17.609Z,54.69
2018-05-02T23:24:44.041Z,54.69
2018-05-02T23:27:11.315Z,55.10
2018-05-02T23:29:37.822Z,54.94
2018-05-02T23:32:05.087Z,54.84
2018-05-02T23:34:32.253Z,54.45
2018-05-02T23:36:58.679Z,54.43
2018-05-02T23:39:25.135Z,54.91
2018-05-02T23:41:51.591Z,54.63
2018-05-02T23:44:18.393Z,54.67
2018-05-02T23:46:44.887Z,54.51
2018-05-02T23:49:11.335Z,54.76
2018-05-02T23:51:38.548Z,54.66
2018-05-02T23:54:04.980Z,54.36
2018-05-02T23:56:31.445Z,53.95
2018-05-02T23:58:58.759Z,54.30
